Tarauaca, Brazil
Current Conditions -  °F | °C
As of 10:00 AM on Tuesday 21 Oct 2014 (Local Time) from SBCZ Reporting Station
Scattered Clouds Scattered Clouds  
Wind Chill: 86°   Ceiling: Unl
Heat Index: 95°   Visibility: 6mi
Dew Point: 75°   Wind: 5mph
Humidity: 70%   Direction: 310°NW
Pressure: 29.97"   Gusts: NA
Location:  8.16°S, 70.78°W
Report Text: SBCZ 211500Z 31004KT 9999 SCT020 SCT100 30/24 Q1015
Loading
Personal Weather Stations






























Interactive Weather Map
Tropical Storm Tracking
New forecast layout! Learn more

10-Day Weather Forecast

Advertisements
Track Severe Weather on mobile